Time;durP1;ratioP1;P1;durP2;ratioP2;P2;SDS_P1;SDS_P2;PMS_P1;PMS_P2;Temp;Humidity;BMP_temperature;BMP_pressure;BME280_temperature;BME280_humidity;BME280_pressure;Samples;Min_cycle;Max_cycle;Signal;HPM_P1;HPM_P2
2022/07/25 00:01:29;;;;;;;12.30;7.95;;;;;;;20.42;nan;98688.00;5044878;28;20093;-68
2022/07/25 00:03:54;;;;;;;13.95;8.65;;;;;;;20.40;nan;98683.78;5065155;28;20032;-67
2022/07/25 00:06:19;;;;;;;13.98;8.30;;;;;;;20.38;nan;98683.16;5046639;28;20043;-69
2022/07/25 00:08:43;;;;;;;13.57;8.65;;;;;;;20.35;nan;98681.66;5045303;28;20036;-68
2022/07/25 00:11:08;;;;;;;13.13;8.43;;;;;;;20.31;nan;98681.16;5063331;28;20043;-66
2022/07/25 00:13:33;;;;;;;11.73;8.50;;;;;;;20.29;nan;98677.84;5046383;28;20047;-66
2022/07/25 00:15:58;;;;;;;13.20;7.88;;;;;;;20.28;nan;98676.16;5062548;28;20089;-66
2022/07/25 00:18:23;;;;;;;15.20;9.30;;;;;;;20.26;nan;98671.97;5037386;28;20039;-67
2022/07/25 00:20:48;;;;;;;12.52;7.85;;;;;;;20.23;nan;98670.50;5045428;28;20047;-67
2022/07/25 00:23:12;;;;;;;13.00;7.88;;;;;;;20.21;nan;98663.59;5062528;28;20040;-65
2022/07/25 00:25:37;;;;;;;11.57;8.25;;;;;;;20.18;nan;98664.00;5059719;28;20044;-67
2022/07/25 00:28:02;;;;;;;10.80;7.57;;;;;;;20.17;nan;98675.84;5045771;28;20409;-69
2022/07/25 00:30:27;;;;;;;16.15;8.38;;;;;;;20.13;nan;98671.84;5059967;28;20406;-68
2022/07/25 00:32:52;;;;;;;13.68;9.18;;;;;;;20.11;nan;98663.91;5024232;28;20032;-66
2022/07/25 00:35:17;;;;;;;12.85;8.88;;;;;;;20.10;nan;98669.53;5061690;28;20097;-66
2022/07/25 00:37:41;;;;;;;15.25;8.98;;;;;;;20.09;nan;98660.56;5063100;28;20078;-68
2022/07/25 00:40:07;;;;;;;13.82;9.15;;;;;;;20.07;nan;98657.25;5055766;28;20089;-67
2022/07/25 00:42:32;;;;;;;16.13;8.85;;;;;;;20.08;nan;98660.78;5021539;28;20070;-68
2022/07/25 00:44:58;;;;;;;12.18;8.25;;;;;;;20.06;nan;98663.69;5073181;28;20032;-66
2022/07/25 00:47:23;;;;;;;13.60;8.32;;;;;;;20.02;nan;98659.69;5074575;28;20044;-67
2022/07/25 00:49:48;;;;;;;12.48;7.45;;;;;;;19.93;nan;98661.69;5074887;28;20039;-64
2022/07/25 00:52:13;;;;;;;14.75;9.48;;;;;;;19.86;nan;98660.75;5056474;28;20043;-65
2022/07/25 00:54:38;;;;;;;12.35;8.68;;;;;;;19.79;nan;98665.28;5074905;28;20035;-65
2022/07/25 00:57:03;;;;;;;15.73;9.40;;;;;;;19.76;nan;98662.94;5074797;28;20039;-66
2022/07/25 00:59:28;;;;;;;11.35;8.50;;;;;;;19.73;nan;98662.50;5074460;28;20043;-63
2022/07/25 01:01:52;;;;;;;14.25;8.82;;;;;;;19.69;nan;98659.34;5073950;28;20047;-62
2022/07/25 01:04:17;;;;;;;12.93;9.25;;;;;;;19.65;nan;98660.75;5074250;28;20047;-62
2022/07/25 01:06:42;;;;;;;13.55;9.18;;;;;;;19.63;nan;98659.28;5074221;28;20040;-62
2022/07/25 01:09:08;;;;;;;13.90;9.15;;;;;;;19.56;nan;98657.34;5074344;28;20050;-63
2022/07/25 01:11:33;;;;;;;18.98;9.82;;;;;;;19.49;nan;98661.84;5074160;28;20057;-62
2022/07/25 01:13:58;;;;;;;17.70;9.77;;;;;;;19.46;nan;98664.03;5049866;28;20032;-62
2022/07/25 01:16:23;;;;;;;16.77;10.15;;;;;;;19.43;nan;98659.00;5063058;28;20048;-63
2022/07/25 01:18:47;;;;;;;15.30;10.00;;;;;;;19.43;nan;98661.72;5063840;28;20035;-62
2022/07/25 01:21:13;;;;;;;17.05;9.77;;;;;;;19.44;nan;98660.69;5046355;28;20506;-62
2022/07/25 01:23:38;;;;;;;15.93;10.07;;;;;;;19.46;nan;98661.34;5062679;28;20062;-62
2022/07/25 01:26:03;;;;;;;25.67;10.98;;;;;;;19.50;nan;98663.50;5064114;28;20039;-64
2022/07/25 01:28:28;;;;;;;21.00;10.68;;;;;;;19.57;nan;98667.13;5063476;28;20085;-63
2022/07/25 01:30:52;;;;;;;21.20;9.50;;;;;;;19.64;nan;98685.31;5028310;28;20119;-63
2022/07/25 01:33:19;;;;;;;17.75;9.65;;;;;;;19.67;nan;98677.63;5048578;28;20410;-63
2022/07/25 01:35:44;;;;;;;18.67;9.88;;;;;;;19.70;nan;98681.81;5065905;28;20402;-63
2022/07/25 01:38:10;;;;;;;16.80;10.25;;;;;;;19.69;nan;98686.38;5050259;28;20044;-64
2022/07/25 01:40:34;;;;;;;16.67;10.30;;;;;;;19.67;nan;98677.63;5068249;28;20051;-63
2022/07/25 01:42:59;;;;;;;13.43;9.77;;;;;;;19.67;nan;98680.31;5048108;28;20032;-63
2022/07/25 01:45:24;;;;;;;19.48;9.98;;;;;;;19.66;nan;98681.34;5067853;28;20073;-63
2022/07/25 01:47:49;;;;;;;11.88;10.18;;;;;;;19.64;nan;98671.78;5067089;28;20406;-64
2022/07/25 01:50:14;;;;;;;14.55;9.93;;;;;;;19.62;nan;98671.97;5065670;28;20043;-65
2022/07/25 01:52:39;;;;;;;17.42;10.23;;;;;;;19.61;nan;98673.00;5077641;28;20040;-65
2022/07/25 01:55:04;;;;;;;22.77;11.27;;;;;;;19.59;nan;98675.03;5077523;28;20680;-64
2022/07/25 01:57:29;;;;;;;17.95;10.57;;;;;;;19.58;nan;98673.38;5077485;28;20044;-69
2022/07/25 01:59:54;;;;;;;17.00;9.95;;;;;;;19.58;nan;98667.97;5058793;28;20053;-66
2022/07/25 02:02:18;;;;;;;17.73;10.10;;;;;;;19.60;nan;98670.47;5077097;28;20108;-64
2022/07/25 02:04:43;;;;;;;18.85;9.52;;;;;;;19.62;nan;98669.25;5077449;28;20043;-63
2022/07/25 02:07:08;;;;;;;21.35;10.70;;;;;;;19.64;nan;98667.19;5077360;28;20084;-64
2022/07/25 02:09:33;;;;;;;13.00;9.20;;;;;;;19.65;nan;98668.84;5076717;28;20043;-64
2022/07/25 02:11:58;;;;;;;12.70;9.07;;;;;;;19.67;nan;98674.91;5058974;28;20085;-64
2022/07/25 02:14:23;;;;;;;16.35;9.95;;;;;;;19.69;nan;98677.44;5077470;28;20051;-63
2022/07/25 02:16:48;;;;;;;16.25;9.27;;;;;;;19.71;nan;98676.22;5074071;28;20444;-64
2022/07/25 02:19:12;;;;;;;15.57;9.52;;;;;;;19.74;nan;98680.41;5065564;28;20552;-66
2022/07/25 02:21:37;;;;;;;15.90;10.80;;;;;;;19.77;nan;98670.03;5050237;28;20039;-66
2022/07/25 02:24:03;;;;;;;15.43;9.55;;;;;;;19.80;nan;98677.78;5077384;28;20088;-65
2022/07/25 02:26:27;;;;;;;19.50;9.68;;;;;;;19.84;nan;98676.38;5077200;28;20039;-65
2022/07/25 02:28:52;;;;;;;11.85;8.95;;;;;;;19.86;nan;98674.28;5077167;28;20052;-68
2022/07/25 02:31:17;;;;;;;11.75;9.05;;;;;;;19.91;nan;98684.53;5059370;28;20047;-68
2022/07/25 02:33:42;;;;;;;13.60;9.23;;;;;;;19.96;nan;98682.13;5077013;28;20542;-70
2022/07/25 02:36:08;;;;;;;22.02;10.82;;;;;;;20.05;nan;98686.34;5067258;28;20047;-71
2022/07/25 02:38:33;;;;;;;14.27;9.52;;;;;;;20.12;nan;98684.53;5066281;28;20083;-65
2022/07/25 02:40:58;;;;;;;12.45;8.52;;;;;;;20.21;nan;98680.66;5065981;28;20047;-69
2022/07/25 02:43:23;;;;;;;14.50;9.60;;;;;;;20.30;nan;98678.69;5067464;28;20075;-68
2022/07/25 02:45:48;;;;;;;15.27;9.55;;;;;;;20.39;nan;98672.13;5043847;28;20066;-67
2022/07/25 02:48:12;;;;;;;12.48;8.50;;;;;;;20.50;nan;98676.16;5066933;28;20452;-68
2022/07/25 02:50:37;;;;;;;14.88;9.07;;;;;;;20.59;nan;98680.41;5066496;28;20559;-69
2022/07/25 02:53:03;;;;;;;12.30;8.90;;;;;;;20.64;nan;98675.25;5067818;28;20070;-68
2022/07/25 02:55:28;;;;;;;15.35;8.30;;;;;;;20.66;nan;98676.69;5068318;28;20040;-68
2022/07/25 02:57:53;;;;;;;10.35;7.93;;;;;;;20.69;nan;98670.06;5076823;28;20966;-68
2022/07/25 03:00:18;;;;;;;15.25;8.82;;;;;;;20.72;nan;98675.09;5076337;28;20040;-71
2022/07/25 03:02:43;;;;;;;13.68;8.10;;;;;;;20.79;nan;98667.00;5076652;28;20507;-70
2022/07/25 03:05:10;;;;;;;14.20;8.55;;;;;;;20.92;nan;98678.75;5076162;28;20512;-70
2022/07/25 03:07:35;;;;;;;12.93;7.90;;;;;;;21.06;nan;98668.84;5076120;28;20051;-70
2022/07/25 03:10:00;;;;;;;12.13;8.15;;;;;;;21.21;nan;98668.75;5057961;28;20050;-70
2022/07/25 03:12:24;;;;;;;11.65;7.93;;;;;;;21.33;nan;98675.28;5076573;28;20044;-70
2022/07/25 03:14:49;;;;;;;11.90;7.80;;;;;;;21.47;nan;98665.28;5076151;28;20097;-69
2022/07/25 03:17:14;;;;;;;11.68;8.00;;;;;;;21.58;nan;98668.25;5076019;28;20069;-69
2022/07/25 03:19:39;;;;;;;11.38;7.70;;;;;;;21.70;nan;98666.63;5075977;28;20637;-69
2022/07/25 03:22:03;;;;;;;9.43;7.88;;;;;;;21.86;nan;98664.59;5057828;28;20387;-69
2022/07/25 03:24:29;;;;;;;13.00;7.95;;;;;;;21.99;nan;98661.94;5057766;28;20036;-68
2022/07/25 03:26:54;;;;;;;10.35;7.22;;;;;;;22.12;nan;98655.69;5057381;28;20122;-68
2022/07/25 03:29:19;;;;;;;12.13;8.02;;;;;;;22.22;nan;98654.22;5057654;28;20479;-69
2022/07/25 03:31:43;;;;;;;9.30;7.50;;;;;;;22.31;nan;98658.41;5057859;28;20510;-69
2022/07/25 03:34:08;;;;;;;12.10;7.95;;;;;;;22.41;nan;98655.28;5075492;28;20565;-70
2022/07/25 03:36:33;;;;;;;12.07;7.47;;;;;;;22.56;nan;98660.50;5057357;28;20039;-68
2022/07/25 03:38:57;;;;;;;9.32;6.90;;;;;;;22.70;nan;98659.41;5057510;28;20168;-69
2022/07/25 03:41:22;;;;;;;11.85;7.40;;;;;;;22.84;nan;98663.00;5057647;28;20054;-69
2022/07/25 03:43:47;;;;;;;9.73;7.80;;;;;;;22.95;nan;98671.31;5075892;28;20521;-70
2022/07/25 03:46:12;;;;;;;11.10;7.32;;;;;;;23.04;nan;98672.75;5057805;28;20118;-70
2022/07/25 03:48:37;;;;;;;14.90;8.20;;;;;;;23.09;nan;98672.97;5076077;28;20095;-70
2022/07/25 03:51:02;;;;;;;11.02;6.60;;;;;;;23.16;nan;98671.06;5075213;28;20043;-70
2022/07/25 03:53:26;;;;;;;11.93;7.95;;;;;;;23.23;nan;98675.66;5075354;28;20395;-70
2022/07/25 03:55:51;;;;;;;10.18;7.45;;;;;;;23.31;nan;98667.25;5074399;28;20051;-71
2022/07/25 03:58:16;;;;;;;9.10;7.55;;;;;;;23.39;nan;98680.59;5056942;28;20418;-71
2022/07/25 04:00:41;;;;;;;15.57;8.05;;;;;;;23.51;nan;98671.59;5075360;28;20444;-70
2022/07/25 04:03:05;;;;;;;13.60;7.95;;;;;;;23.66;nan;98667.75;5075273;28;20574;-70
2022/07/25 04:05:30;;;;;;;9.10;7.75;;;;;;;23.77;nan;98659.75;5075406;28;20039;-70
2022/07/25 04:07:55;;;;;;;8.55;6.70;;;;;;;23.84;nan;98670.59;5075593;28;20044;-70
2022/07/25 04:10:20;;;;;;;9.82;7.75;;;;;;;23.96;nan;98660.69;5075839;28;20474;-69
2022/07/25 04:12:45;;;;;;;11.10;8.20;;;;;;;24.04;nan;98659.59;5075208;28;20150;-69
2022/07/25 04:15:11;;;;;;;10.93;7.68;;;;;;;24.15;nan;98661.63;5075026;28;20613;-69
2022/07/25 04:17:36;;;;;;;14.02;8.00;;;;;;;24.26;nan;98657.38;5074908;28;20456;-69
2022/07/25 04:20:00;;;;;;;9.43;7.65;;;;;;;24.40;nan;98661.63;5075092;28;20070;-69
2022/07/25 04:22:25;;;;;;;11.82;7.07;;;;;;;24.50;nan;98660.09;5074760;28;20051;-70
2022/07/25 04:24:50;;;;;;;10.40;7.72;;;;;;;24.49;nan;98661.13;5074705;28;20039;-70
2022/07/25 04:27:15;;;;;;;13.02;6.97;;;;;;;24.52;nan;98657.13;5056613;28;20043;-70
2022/07/25 04:29:40;;;;;;;13.73;8.45;;;;;;;24.51;nan;98656.31;5074825;28;20052;-72
2022/07/25 04:32:05;;;;;;;11.68;7.38;;;;;;;24.52;nan;98671.59;5056777;28;20498;-71
2022/07/25 04:34:30;;;;;;;9.82;6.95;;;;;;;24.68;nan;98662.03;5075391;28;20054;-70
2022/07/25 04:36:55;;;;;;;9.88;8.00;;;;;;;24.89;nan;98658.88;5057447;28;20043;-71
2022/07/25 04:39:19;;;;;;;10.07;8.05;;;;;;;24.96;nan;98665.13;5074746;28;20410;-70
2022/07/25 04:41:44;;;;;;;10.82;7.85;;;;;;;25.06;nan;98661.03;5056204;28;20386;-70
2022/07/25 04:44:09;;;;;;;16.60;8.82;;;;;;;25.15;nan;98662.44;5074568;28;20410;-70
2022/07/25 04:46:34;;;;;;;13.90;8.07;;;;;;;25.22;nan;98665.91;5056238;28;20126;-68
2022/07/25 04:48:59;;;;;;;12.88;7.22;;;;;;;25.33;nan;98660.53;5074638;28;20043;-68
2022/07/25 04:51:24;;;;;;;10.60;7.05;;;;;;;25.47;nan;98657.63;5039352;28;20122;-68
2022/07/25 04:53:48;;;;;;;10.68;7.32;;;;;;;25.61;nan;98661.91;5074468;28;20048;-67
2022/07/25 04:56:13;;;;;;;10.65;7.20;;;;;;;25.78;nan;98654.72;5074601;28;20528;-68
2022/07/25 04:58:38;;;;;;;9.93;8.20;;;;;;;25.91;nan;98657.28;5039644;28;20130;-68
2022/07/25 05:01:03;;;;;;;11.35;8.18;;;;;;;26.25;nan;98658.44;5074621;28;20071;-69
2022/07/25 05:03:28;;;;;;;8.30;7.10;;;;;;;26.70;nan;98656.03;5056363;28;20036;-68
2022/07/25 05:05:53;;;;;;;9.63;7.25;;;;;;;27.05;nan;98661.53;5056353;28;20096;-69
2022/07/25 05:08:17;;;;;;;8.20;6.93;;;;;;;27.43;nan;98660.13;5076611;28;20093;-70
2022/07/25 05:10:42;;;;;;;13.18;7.00;;;;;;;27.70;nan;98661.28;5060064;28;20062;-70
2022/07/25 05:13:07;;;;;;;9.73;6.90;;;;;;;27.94;nan;98666.66;5078871;28;20040;-70
2022/07/25 05:15:32;;;;;;;9.20;7.43;;;;;;;28.25;nan;98655.19;5078185;28;20047;-70
2022/07/25 05:17:57;;;;;;;7.88;6.90;;;;;;;28.46;nan;98659.94;5042906;28;20047;-71
2022/07/25 05:20:22;;;;;;;9.40;6.75;;;;;;;28.82;nan;98657.81;5078324;28;20103;-70
2022/07/25 05:22:46;;;;;;;8.90;7.80;;;;;;;29.15;nan;98662.41;5078348;28;20047;-70
2022/07/25 05:25:12;;;;;;;11.73;7.85;;;;;;;29.50;nan;98664.81;5059915;28;20112;-70
2022/07/25 05:27:37;;;;;;;8.40;7.43;;;;;;;29.65;nan;98655.94;5059792;28;20092;-72
2022/07/25 05:30:04;;;;;;;7.82;7.03;;;;;;;29.90;nan;98659.81;5077517;28;20051;-70
2022/07/25 05:32:29;;;;;;;11.13;7.22;;;;;;;29.99;nan;98657.47;5059680;28;20122;-70
2022/07/25 05:34:54;;;;;;;10.35;7.50;;;;;;;30.12;nan;98656.22;5077982;28;20063;-70
2022/07/25 05:37:19;;;;;;;9.40;7.90;;;;;;;30.27;nan;98659.91;5042682;28;20039;-70
2022/07/25 05:39:44;;;;;;;10.95;7.47;;;;;;;30.37;nan;98653.69;5077986;28;20043;-71
2022/07/25 05:42:09;;;;;;;9.93;7.28;;;;;;;30.34;nan;98667.97;5077814;28;20055;-71
2022/07/25 05:44:34;;;;;;;10.75;7.90;;;;;;;30.22;nan;98664.56;5077728;28;20035;-70
2022/07/25 05:46:59;;;;;;;10.55;6.60;;;;;;;30.31;nan;98665.75;5077772;28;20044;-70
2022/07/25 05:49:23;;;;;;;7.78;6.68;;;;;;;30.38;nan;98663.59;5059444;28;20039;-70
2022/07/25 05:51:48;;;;;;;9.68;7.05;;;;;;;30.26;nan;98663.75;5059351;28;20050;-69
2022/07/25 05:54:13;;;;;;;14.98;7.93;;;;;;;29.98;nan;98661.28;5077613;28;20048;-69
2022/07/25 05:56:38;;;;;;;8.52;6.80;;;;;;;29.49;nan;98654.91;5077576;28;20043;-69
2022/07/25 05:59:03;;;;;;;11.60;7.05;;;;;;;29.10;nan;98649.44;5077410;28;20043;-69
2022/07/25 06:01:27;;;;;;;11.35;7.88;;;;;;;29.20;nan;98657.00;5077551;28;20055;-70
2022/07/25 06:03:52;;;;;;;11.07;7.20;;;;;;;29.28;nan;98651.06;5077280;28;20049;-68
2022/07/25 06:06:17;;;;;;;9.13;8.23;;;;;;;29.23;nan;98654.56;5077247;28;20134;-69
2022/07/25 06:08:41;;;;;;;10.50;7.80;;;;;;;28.92;nan;98646.97;5077211;28;20040;-68
2022/07/25 06:11:07;;;;;;;11.52;8.45;;;;;;;28.78;nan;98657.47;5077435;28;20505;-69
2022/07/25 06:13:33;;;;;;;11.32;7.47;;;;;;;28.95;nan;98657.47;5042218;28;20066;-69
2022/07/25 06:15:57;;;;;;;12.00;7.30;;;;;;;29.01;nan;98653.69;5077042;28;20516;-68
2022/07/25 06:18:23;;;;;;;10.75;7.80;;;;;;;29.30;nan;98656.28;5058453;28;20501;-68
2022/07/25 06:20:48;;;;;;;13.25;8.55;;;;;;;29.73;nan;98648.06;5058078;28;20058;-69
2022/07/25 06:23:13;;;;;;;22.90;8.27;;;;;;;30.66;nan;98651.50;5025086;28;20043;-69
2022/07/25 06:25:38;;;;;;;8.45;7.35;;;;;;;32.23;nan;98709.34;5058988;28;20096;-69
2022/07/25 06:28:03;;;;;;;22.95;15.77;;;;;;;33.90;nan;98662.19;5060654;28;20043;-68
2022/07/25 06:30:28;;;;;;;14.75;8.73;;;;;;;34.44;nan;98659.38;5077412;28;20059;-68
2022/07/25 06:32:53;;;;;;;13.27;8.10;;;;;;;34.57;nan;98660.66;5059008;28;20134;-68
2022/07/25 06:35:18;;;;;;;12.45;7.97;;;;;;;34.20;nan;98670.28;5058651;28;20138;-68
2022/07/25 06:37:43;;;;;;;9.05;7.07;;;;;;;33.75;nan;98662.31;5077008;28;20043;-69
2022/07/25 06:40:08;;;;;;;13.68;8.50;;;;;;;33.79;nan;98658.66;5058682;28;20390;-69
2022/07/25 06:42:40;;;;;;;9.70;7.93;;;;;;;34.74;nan;98666.59;5076896;28;20047;-68
2022/07/25 06:45:08;;;;;;;9.57;8.05;;;;;;;36.01;nan;98667.97;5076510;28;20039;-69
2022/07/25 06:47:32;;;;;;;10.82;7.47;;;;;;;36.80;nan;98724.56;5058336;28;20404;-70
2022/07/25 06:49:57;;;;;;;8.77;7.50;;;;;;;36.53;nan;98719.69;5076636;28;20039;-70
2022/07/25 06:52:22;;;;;;;8.90;7.10;;;;;;;35.71;nan;98724.66;5076626;28;20547;-70
2022/07/25 06:54:47;;;;;;;10.48;8.02;;;;;;;34.81;nan;98661.56;5076180;28;20541;-70
2022/07/25 06:57:11;;;;;;;9.82;7.97;;;;;;;34.40;nan;98661.09;5076374;28;20135;-69
2022/07/25 06:59:36;;;;;;;8.32;7.22;;;;;;;33.87;nan;98666.34;5057831;28;20506;-70
2022/07/25 07:02:01;;;;;;;10.07;7.72;;;;;;;33.38;nan;98659.94;5058127;28;20047;-70
2022/07/25 07:04:26;;;;;;;8.32;7.03;;;;;;;32.74;nan;98655.88;5058078;28;20043;-71
2022/07/25 07:06:51;;;;;;;8.35;7.05;;;;;;;32.33;nan;98657.78;5057965;28;20039;-71
2022/07/25 07:09:16;;;;;;;7.95;6.95;;;;;;;33.47;nan;98661.81;5041163;28;20059;-69
2022/07/25 07:11:40;;;;;;;8.52;6.97;;;;;;;33.87;nan;98663.59;5075894;28;20043;-69
2022/07/25 07:14:05;;;;;;;9.38;7.55;;;;;;;33.62;nan;98662.88;5076458;28;20047;-68
2022/07/25 07:16:30;;;;;;;9.07;7.43;;;;;;;33.11;nan;98665.75;5057698;28;20061;-69
2022/07/25 07:18:56;;;;;;;9.55;7.43;;;;;;;32.44;nan;98661.38;5075963;28;20051;-68
2022/07/25 07:21:21;;;;;;;9.63;7.70;;;;;;;31.36;nan;98661.31;5057751;28;20039;-69
2022/07/25 07:23:46;;;;;;;9.00;7.93;;;;;;;30.14;nan;98665.84;5075958;28;20093;-68
2022/07/25 07:26:11;;;;;;;9.40;7.60;;;;;;;29.22;nan;98663.91;5057465;28;20043;-68
2022/07/25 07:28:36;;;;;;;8.80;7.72;;;;;;;28.46;nan;98659.94;5075848;28;20047;-68
2022/07/25 07:31:00;;;;;;;11.15;7.68;;;;;;;28.16;nan;98665.72;5075555;28;20525;-68
2022/07/25 07:33:25;;;;;;;11.00;8.40;;;;;;;27.84;nan;98664.56;5040618;28;20048;-68
2022/07/25 07:35:50;;;;;;;11.82;8.73;;;;;;;27.98;nan;98667.84;5075706;28;20047;-68
2022/07/25 07:38:16;;;;;;;9.63;8.50;;;;;;;28.61;nan;98666.78;5075965;28;20100;-68
2022/07/25 07:40:41;;;;;;;11.05;8.70;;;;;;;30.04;nan;98663.00;5075911;28;20045;-68
2022/07/25 07:43:06;;;;;;;12.00;7.65;;;;;;;31.80;nan;98666.47;5075443;28;20131;-68
2022/07/25 07:45:31;;;;;;;11.35;8.25;;;;;;;32.91;nan;98663.03;5057438;28;20028;-67
2022/07/25 07:47:57;;;;;;;9.32;7.75;;;;;;;34.31;nan;98650.91;5075414;28;20047;-68
2022/07/25 07:50:25;;;;;;;10.68;9.57;;;;;;;35.50;nan;98676.13;5075589;28;20067;-68
2022/07/25 07:52:51;;;;;;;11.88;8.60;;;;;;;36.25;nan;98660.44;5057186;28;20035;-68
2022/07/25 07:58:00;;;;;;;;;;;;;;;39.56;nan;98666.91;5075822;28;20055;-70
2022/07/25 08:00:26;;;;;;;9.93;7.70;;;;;;;40.47;nan;98674.50;5075589;28;19916;-69
2022/07/25 08:02:53;;;;;;;9.60;8.60;;;;;;;41.30;nan;98669.44;5040094;28;20041;-68
2022/07/25 08:05:23;;;;;;;8.82;7.90;;;;;;;42.39;nan;98665.88;5075227;28;20059;-68
2022/07/25 08:07:50;;;;;;;12.13;8.63;;;;;;;43.10;nan;98666.50;5056866;28;20043;-67
2022/07/25 08:10:15;;;;;;;9.68;8.45;;;;;;;42.19;nan;98666.66;5075021;28;20291;-67
2022/07/25 08:12:40;;;;;;;9.43;8.52;;;;;;;41.72;nan;98663.97;5057115;28;20055;-68
2022/07/25 08:15:06;;;;;;;9.85;8.68;;;;;;;41.29;nan;98667.78;5075288;28;20075;-68
2022/07/25 08:17:30;;;;;;;8.20;7.30;;;;;;;40.68;nan;98657.84;5074841;28;20035;-68
2022/07/25 08:19:55;;;;;;;9.30;8.32;;;;;;;39.60;nan;98649.53;5056902;28;20043;-68
2022/07/25 08:22:20;;;;;;;9.80;8.88;;;;;;;38.19;nan;98665.97;5075375;28;20142;-69
2022/07/25 08:24:45;;;;;;;9.02;7.50;;;;;;;36.72;nan;98650.25;5039770;28;20059;-68
2022/07/25 08:27:09;;;;;;;8.80;7.90;;;;;;;35.67;nan;98655.09;5074681;28;20148;-70
2022/07/25 08:29:34;;;;;;;10.15;7.65;;;;;;;36.20;nan;98654.13;5074690;28;20112;-69
2022/07/25 08:31:59;;;;;;;12.00;9.00;;;;;;;38.31;nan;98660.69;5056667;28;20509;-68
2022/07/25 08:34:24;;;;;;;12.10;8.10;;;;;;;40.53;nan;98659.19;5074634;28;20047;-69
2022/07/25 08:36:48;;;;;;;9.05;7.45;;;;;;;41.85;nan;98662.09;5074673;28;20043;-69
2022/07/25 08:39:13;;;;;;;7.93;7.10;;;;;;;41.95;nan;98670.94;5074536;28;20045;-69
2022/07/25 08:41:41;;;;;;;12.45;7.38;;;;;;;42.18;nan;98676.22;5075426;28;20044;-68
2022/07/25 08:44:07;;;;;;;8.02;7.30;;;;;;;43.04;nan;98681.06;5045975;28;20072;-69
2022/07/25 08:46:33;;;;;;;9.52;8.63;;;;;;;43.52;nan;98674.75;5063133;28;20039;-68
2022/07/25 08:48:58;;;;;;;10.00;9.00;;;;;;;44.31;nan;98662.06;5081479;28;20096;-69
2022/07/25 08:51:24;;;;;;;10.13;9.13;;;;;;;45.17;nan;98662.53;5063454;28;20041;-69
2022/07/25 08:53:49;;;;;;;10.80;9.80;;;;;;;45.61;nan;98668.91;5063309;28;20551;-69
2022/07/25 08:56:14;;;;;;;11.48;10.38;;;;;;;44.30;nan;98660.41;5081264;28;20075;-70
2022/07/25 08:58:40;;;;;;;16.80;10.55;;;;;;;41.71;nan;98667.13;5081288;28;20047;-70
2022/07/25 09:01:05;;;;;;;10.85;9.77;;;;;;;39.78;nan;98663.19;5081258;28;20047;-69
2022/07/25 09:03:35;;;;;;;11.10;8.75;;;;;;;39.02;nan;98670.91;5081189;28;20104;-69
2022/07/25 09:05:59;;;;;;;8.57;7.78;;;;;;;37.91;nan;98652.13;5062877;28;20042;-68
2022/07/25 09:08:24;;;;;;;8.57;7.70;;;;;;;36.82;nan;98661.19;5063110;28;20040;-69
2022/07/25 09:10:51;;;;;;;11.57;7.90;;;;;;;36.81;nan;98661.50;5062870;28;20043;-68
2022/07/25 09:13:18;;;;;;;11.05;8.45;;;;;;;37.16;nan;98665.59;5081053;28;20537;-68
2022/07/25 09:15:50;;;;;;;9.07;8.18;;;;;;;37.95;nan;98663.44;5081020;28;20099;-69
2022/07/25 09:18:17;;;;;;;8.88;8.05;;;;;;;38.15;nan;98663.03;5044182;28;20044;-71
2022/07/25 09:20:42;;;;;;;8.65;7.68;;;;;;;38.14;nan;98661.38;5040382;28;20127;-70
2022/07/25 09:23:07;;;;;;;8.85;7.70;;;;;;;38.76;nan;98661.53;5040237;28;20123;-71
2022/07/25 09:25:32;;;;;;;9.63;8.43;;;;;;;40.07;nan;98657.00;5040260;28;20229;-70
2022/07/25 09:28:17;;;;;;;9.30;7.95;;;;;;;41.41;nan;98671.88;5022373;28;20086;-70
2022/07/25 09:30:55;;;;;;;13.40;9.65;;;;;;;40.79;nan;98669.53;5040301;28;20063;-69
2022/07/25 09:33:22;;;;;;;8.30;7.45;;;;;;;40.67;nan;98664.59;5022543;28;20068;-69
2022/07/25 09:35:47;;;;;;;10.73;9.13;;;;;;;42.33;nan;98650.38;5022410;28;20072;-68
2022/07/25 09:38:14;;;;;;;9.18;8.38;;;;;;;43.61;nan;98660.63;5040259;28;20075;-70
2022/07/25 09:40:40;;;;;;;9.13;8.25;;;;;;;43.19;nan;98660.00;5040499;28;20479;-70
2022/07/25 09:43:05;;;;;;;9.82;8.82;;;;;;;43.50;nan;98662.22;5040649;28;20048;-69
2022/07/25 09:45:30;;;;;;;12.57;11.30;;;;;;;44.96;nan;98664.75;5040647;28;20497;-68
2022/07/25 09:48:01;;;;;;;13.25;11.90;;;;;;;46.78;nan;98676.41;5046181;28;20521;-69
2022/07/25 09:50:30;;;;;;;13.57;12.55;;;;;;;48.53;nan;98681.81;5042552;28;20039;-68
2022/07/25 09:52:56;;;;;;;16.25;14.80;;;;;;;50.01;nan;98680.84;5060426;28;20105;-69
2022/07/25 09:55:22;;;;;;;18.75;16.98;;;;;;;51.17;nan;98680.56;5057495;28;20077;-67
2022/07/25 09:57:48;;;;;;;19.08;17.55;;;;;;;52.08;nan;98686.69;5038878;28;20047;-69
2022/07/25 10:00:15;;;;;;;21.30;19.98;;;;;;;52.39;nan;98715.47;5039180;28;20036;-69
2022/07/25 10:02:43;;;;;;;24.23;22.73;;;;;;;52.91;nan;98722.25;5022485;28;20048;-69
2022/07/25 10:05:13;;;;;;;23.20;21.50;;;;;;;52.68;nan;98721.91;5058083;28;20765;-70
2022/07/25 10:07:40;;;;;;;19.17;18.08;;;;;;;50.68;nan;98674.78;5039974;28;20047;-71
2022/07/25 10:10:06;;;;;;;17.45;16.20;;;;;;;48.11;nan;98667.06;5057124;28;20039;-69
2022/07/25 10:12:31;;;;;;;15.38;14.25;;;;;;;45.72;nan;98653.06;5039741;28;20079;-70
2022/07/25 10:15:12;;;;;;;13.57;12.48;;;;;;;44.72;nan;98657.22;5056885;28;20076;-69
2022/07/25 10:17:40;;;;;;;13.55;12.38;;;;;;;45.18;nan;98648.09;5039252;28;20534;-70
2022/07/25 10:20:07;;;;;;;15.68;14.57;;;;;;;47.08;nan;98659.66;5056987;28;20062;-71
2022/07/25 10:22:36;;;;;;;15.85;14.52;;;;;;;49.17;nan;98662.75;5057075;28;20052;-71
2022/07/25 10:25:11;;;;;;;17.88;16.48;;;;;;;50.84;nan;98666.69;5057048;28;20040;-70
2022/07/25 10:27:47;;;;;;;19.35;17.98;;;;;;;52.10;nan;98666.38;5056810;28;20048;-70
2022/07/25 10:30:23;;;;;;;21.80;20.20;;;;;;;53.11;nan;98706.25;5022272;28;20056;-69
2022/07/25 10:32:50;;;;;;;23.35;22.05;;;;;;;52.20;nan;98703.31;5005752;28;20040;-71
2022/07/25 10:35:16;;;;;;;19.42;18.25;;;;;;;49.97;nan;98649.66;5038968;28;20451;-71
2022/07/25 10:37:44;;;;;;;17.17;16.08;;;;;;;47.27;nan;98642.69;5056626;28;20152;-70
2022/07/25 10:40:09;;;;;;;13.63;12.63;;;;;;;44.57;nan;98632.72;5056651;28;20375;-71
2022/07/25 10:42:35;;;;;;;12.27;11.18;;;;;;;42.30;nan;98640.69;5056483;28;20101;-69
2022/07/25 10:45:01;;;;;;;11.43;10.45;;;;;;;40.48;nan;98620.25;5021858;28;20402;-69
2022/07/25 10:47:27;;;;;;;12.35;9.73;;;;;;;39.13;nan;98626.84;5038482;28;20059;-69
2022/07/25 10:50:02;;;;;;;13.15;9.48;;;;;;;38.19;nan;98622.25;5038749;28;20036;-69
2022/07/25 10:52:29;;;;;;;11.30;9.75;;;;;;;36.79;nan;98614.59;5056363;28;20130;-70
2022/07/25 10:54:59;;;;;;;11.05;10.00;;;;;;;35.94;nan;98621.19;5056964;28;20043;-68
2022/07/25 10:57:24;;;;;;;9.10;8.20;;;;;;;35.26;nan;98612.38;5057468;28;20047;-69
2022/07/25 10:59:49;;;;;;;9.30;8.23;;;;;;;34.77;nan;98610.66;5057754;28;20063;-69
2022/07/25 11:02:17;;;;;;;12.20;8.25;;;;;;;34.46;nan;98612.84;5057969;28;20052;-69
2022/07/25 11:05:00;;;;;;;9.48;7.32;;;;;;;34.07;nan;98609.28;5058169;28;20563;-68
2022/07/25 11:07:27;;;;;;;9.88;8.15;;;;;;;33.67;nan;98604.78;5057675;28;20044;-68
2022/07/25 11:10:00;;;;;;;9.80;7.60;;;;;;;33.27;nan;98609.41;5057979;28;20051;-68
2022/07/25 11:12:26;;;;;;;8.10;6.68;;;;;;;32.70;nan;98598.72;5027839;28;20040;-68
2022/07/25 11:14:59;;;;;;;7.88;7.13;;;;;;;32.43;nan;98607.31;5039424;28;20044;-69
2022/07/25 11:17:23;;;;;;;9.57;6.97;;;;;;;32.16;nan;98599.28;5039091;28;20105;-68
2022/07/25 11:19:55;;;;;;;11.60;7.82;;;;;;;32.10;nan;98606.72;5056921;28;20051;-69
2022/07/25 11:22:20;;;;;;;9.57;7.30;;;;;;;31.82;nan;98595.38;5060001;28;20044;-68
2022/07/25 11:24:46;;;;;;;13.35;7.28;;;;;;;31.70;nan;98598.38;5042142;28;20043;-68
2022/07/25 11:27:23;;;;;;;8.52;7.05;;;;;;;31.60;nan;98595.56;5044777;28;20075;-68
2022/07/25 11:29:48;;;;;;;7.65;6.40;;;;;;;31.58;nan;98592.25;5061711;28;20047;-69
2022/07/25 11:32:13;;;;;;;10.43;7.05;;;;;;;31.61;nan;98584.25;5042494;28;20493;-68
2022/07/25 11:34:43;;;;;;;8.30;6.93;;;;;;;31.68;nan;98593.13;5041085;28;20100;-72
2022/07/25 11:37:10;;;;;;;12.38;7.13;;;;;;;31.62;nan;98594.19;5057334;28;20060;-66
2022/07/25 11:39:37;;;;;;;11.93;8.15;;;;;;;31.56;nan;98586.19;5057028;28;20057;-66